Time;durP1;ratioP1;P1;durP2;ratioP2;P2;SDS_P1;SDS_P2;PMS_P1;PMS_P2;Temp;Humidity;BMP_temperature;BMP_pressure;BME280_temperature;BME280_humidity;BME280_pressure;Samples;Min_cycle;Max_cycle;Signal;HPM_P1;HPM_P2
2023/04/09 00:01:10;;;;;;;;;;;;;;;8.85;70.58;94816.03;5064160;23;19921;-76
2023/04/09 00:03:11;;;;;;;;;;;;;;;8.83;70.48;94818.78;5064293;23;20288;-75
2023/04/09 00:05:13;;;;;;;;;;;;;;;8.85;69.87;94822.09;5063929;23;19931;-77
2023/04/09 00:07:15;;;;;;;;;;;;;;;8.87;70.23;94822.75;5065144;23;19921;-80
2023/04/09 00:09:16;;;;;;;;;;;;;;;8.85;69.96;94829.91;5062271;23;19953;-77
2023/04/09 00:11:18;;;;;;;;;;;;;;;8.87;69.72;94827.97;5039240;23;19957;-76
2023/04/09 00:13:19;;;;;;;;;;;;;;;8.87;69.04;94835.81;5065008;23;19921;-77
2023/04/09 00:15:36;;;;;;;;;;;;;;;8.87;69.97;94835.81;5041245;23;20000;-78
2023/04/09 00:17:37;;;;;;;;;;;;;;;8.87;70.14;94829.78;5063633;23;19921;-79
2023/04/09 00:19:39;;;;;;;;;;;;;;;8.92;69.58;94836.19;5039428;23;20305;-77
2023/04/09 00:21:40;;;;;;;;;;;;;;;8.96;69.50;94828.91;5064876;23;19921;-78
2023/04/09 00:23:42;;;;;;;;;;;;;;;8.95;70.09;94822.03;5063135;23;19928;-72
2023/04/09 00:25:44;;;;;;;;;;;;;;;8.98;69.37;94827.78;5062890;23;20408;-72
2023/04/09 00:27:45;;;;;;;;;;;;;;;8.99;69.52;94829.44;5062404;23;19947;-73
2023/04/09 00:29:47;;;;;;;;;;;;;;;9.04;69.86;94833.41;5062432;23;19972;-74
2023/04/09 00:31:49;;;;;;;;;;;;;;;9.00;69.67;94835.47;5062669;23;20249;-72
2023/04/09 00:33:50;;;;;;;;;;;;;;;8.99;69.18;94831.22;5062092;23;20281;-78
2023/04/09 00:35:52;;;;;;;;;;;;;;;8.89;68.49;94833.88;5063871;23;19921;-76
2023/04/09 00:37:53;;;;;;;;;;;;;;;8.88;69.34;94837.44;5063646;23;20149;-77
2023/04/09 00:39:55;;;;;;;;;;;;;;;8.87;69.57;94838.44;5064652;23;20062;-77
2023/04/09 00:41:57;;;;;;;;;;;;;;;8.89;69.67;94833.88;5037902;23;19925;-77
2023/04/09 00:43:59;;;;;;;;;;;;;;;8.92;69.38;94838.00;5038546;23;19953;-77
2023/04/09 00:46:00;;;;;;;;;;;;;;;8.94;69.00;94836.06;5063495;23;20368;-77
2023/04/09 00:48:02;;;;;;;;;;;;;;;9.01;68.91;94832.72;5037528;23;19929;-79
2023/04/09 00:50:04;;;;;;;;;;;;;;;9.04;68.51;94830.78;5039363;23;19925;-77
2023/04/09 00:52:06;;;;;;;;;;;;;;;8.89;68.60;94833.88;5039745;23;19929;-76
2023/04/09 00:54:07;;;;;;;;;;;;;;;8.69;69.15;94837.53;5039035;23;19922;-76
2023/04/09 00:56:10;;;;;;;;;;;;;;;8.68;69.34;94835.91;5065492;23;19924;-79
2023/04/09 00:58:12;;;;;;;;;;;;;;;8.71;69.52;94831.22;5041021;23;19937;-76
2023/04/09 01:00:14;;;;;;;;;;;;;;;8.78;69.44;94828.88;5038983;23;19989;-79
2023/04/09 01:02:15;;;;;;;;;;;;;;;8.77;69.32;94828.00;5064060;23;20548;-78
2023/04/09 01:04:17;;;;;;;;;;;;;;;8.77;69.51;94828.00;5064861;23;19943;-77
2023/04/09 01:06:19;;;;;;;;;;;;;;;8.85;69.38;94827.31;5039054;23;19977;-79
2023/04/09 01:08:28;;;;;;;;;;;;;;;8.87;68.93;94835.00;5064444;23;19971;-77
2023/04/09 01:10:35;;;;;;;;;;;;;;;8.88;68.97;94834.84;5039292;23;19926;-77
2023/04/09 01:12:45;;;;;;;;;;;;;;;8.89;68.96;94843.53;5039114;23;19985;-77
2023/04/09 01:15:06;;;;;;;;;;;;;;;8.83;69.06;94834.47;5063742;23;19929;-76
2023/04/09 01:17:11;;;;;;;;;;;;;;;8.77;68.78;94842.88;5063507;23;19925;-76
2023/04/09 01:19:25;;;;;;;;;;;;;;;8.76;69.00;94833.41;5038819;23;19957;-79
2023/04/09 01:21:30;;;;;;;;;;;;;;;8.74;68.97;94836.16;5039490;23;19921;-77
2023/04/09 01:23:36;;;;;;;;;;;;;;;8.80;68.57;94842.59;5038459;23;20037;-78
2023/04/09 01:25:40;;;;;;;;;;;;;;;8.75;68.24;94842.19;5065376;23;19983;-77
2023/04/09 01:28:05;;;;;;;;;;;;;;;8.78;69.06;94836.69;5065542;23;20020;-77
2023/04/09 01:30:06;;;;;;;;;;;;;;;8.83;68.21;94847.53;5065585;23;19921;-78
2023/04/09 01:32:08;;;;;;;;;;;;;;;8.77;68.66;94843.69;5039119;23;20081;-77
2023/04/09 01:34:09;;;;;;;;;;;;;;;8.81;68.60;94839.00;5027882;23;20344;-78
2023/04/09 01:36:11;;;;;;;;;;;;;;;8.85;69.00;94832.53;5038810;23;19969;-76
2023/04/09 01:38:13;;;;;;;;;;;;;;;8.90;68.80;94845.16;5040015;23;20360;-78
2023/04/09 01:40:15;;;;;;;;;;;;;;;8.92;68.65;94845.84;5039981;23;19921;-79
2023/04/09 01:42:16;;;;;;;;;;;;;;;8.95;68.35;94843.75;5040235;23;19921;-79
2023/04/09 01:44:18;;;;;;;;;;;;;;;8.96;68.76;94836.75;5039479;23;19921;-80
2023/04/09 01:46:20;;;;;;;;;;;;;;;8.98;68.38;94840.84;5039446;23;19921;-79
2023/04/09 01:48:22;;;;;;;;;;;;;;;8.97;68.42;94841.81;5038475;23;20000;-79
2023/04/09 01:50:23;;;;;;;;;;;;;;;8.95;68.68;94842.94;5039951;23;19921;-79
2023/04/09 01:52:25;;;;;;;;;;;;;;;8.91;68.96;94847.63;5066393;23;19921;-77
2023/04/09 01:54:26;;;;;;;;;;;;;;;8.93;69.12;94840.47;5040615;23;19996;-76
2023/04/09 01:56:38;;;;;;;;;;;;;;;8.94;69.04;94836.06;5066309;23;20561;-76
2023/04/09 01:58:40;;;;;;;;;;;;;;;8.97;68.87;94847.06;5038929;23;19933;-76
2023/04/09 02:00:44;;;;;;;;;;;;;;;8.97;68.13;94847.06;5040006;23;20313;-77
2023/04/09 02:03:05;;;;;;;;;;;;;;;8.97;68.14;94844.44;5039203;23;19941;-78
2023/04/09 02:05:07;;;;;;;;;;;;;;;8.90;68.60;94838.13;5064865;23;19935;-74
2023/04/09 02:07:11;;;;;;;;;;;;;;;8.80;69.05;94840.81;5065166;23;20269;-74
2023/04/09 02:09:13;;;;;;;;;;;;;;;8.70;69.69;94833.97;5065724;23;19980;-73
2023/04/09 02:11:14;;;;;;;;;;;;;;;8.71;68.80;94838.22;5065426;23;19929;-71
2023/04/09 02:13:16;;;;;;;;;;;;;;;8.71;69.37;94846.91;5065127;23;19924;-72
2023/04/09 02:15:20;;;;;;;;;;;;;;;8.71;69.57;94843.44;5039214;23;20594;-74
2023/04/09 02:17:21;;;;;;;;;;;;;;;8.68;69.01;94844.56;5064381;23;19940;-72
2023/04/09 02:19:23;;;;;;;;;;;;;;;8.70;68.88;94836.59;5040228;23;19921;-74
2023/04/09 02:21:25;;;;;;;;;;;;;;;8.69;69.03;94842.75;5039243;23;19921;-73
2023/04/09 02:23:27;;;;;;;;;;;;;;;8.73;68.57;94834.53;5039675;23;19922;-79
2023/04/09 02:25:28;;;;;;;;;;;;;;;8.70;68.70;94833.97;5039416;23;19994;-76
2023/04/09 02:27:30;;;;;;;;;;;;;;;8.70;68.96;94836.59;5065615;23;19925;-76
2023/04/09 02:29:31;;;;;;;;;;;;;;;8.67;69.17;94831.63;5064573;23;20304;-78
2023/04/09 02:31:33;;;;;;;;;;;;;;;8.63;69.36;94836.34;5065502;23;19921;-77
2023/04/09 02:33:34;;;;;;;;;;;;;;;8.65;68.63;94837.03;5064106;23;19960;-76
2023/04/09 02:35:36;;;;;;;;;;;;;;;8.68;69.33;94835.91;5064899;23;20133;-79
2023/04/09 02:37:37;;;;;;;;;;;;;;;8.71;69.14;94830.38;5065372;23;19943;-79
2023/04/09 02:39:39;;;;;;;;;;;;;;;8.77;69.17;94829.81;5065309;23;20329;-77
2023/04/09 02:41:41;;;;;;;;;;;;;;;8.77;68.87;94833.25;5065298;23;19972;-77
2023/04/09 02:43:42;;;;;;;;;;;;;;;8.75;68.53;94826.53;5039572;23;19989;-77
2023/04/09 02:45:44;;;;;;;;;;;;;;;8.75;68.53;94831.75;5064652;23;19921;-77
2023/04/09 02:47:45;;;;;;;;;;;;;;;8.78;68.07;94832.28;5038263;23;19921;-77
2023/04/09 02:49:47;;;;;;;;;;;;;;;8.81;68.91;94831.16;5039481;23;19952;-76
2023/04/09 02:51:49;;;;;;;;;;;;;;;8.80;68.64;94826.94;5065431;23;20294;-76
2023/04/09 02:53:50;;;;;;;;;;;;;;;8.75;68.38;94821.28;5065197;23;20025;-76
2023/04/09 02:55:52;;;;;;;;;;;;;;;8.71;68.28;94825.16;5065098;23;19972;-77
2023/04/09 02:57:53;;;;;;;;;;;;;;;8.70;68.11;94826.16;5065830;23;20399;-78
2023/04/09 02:59:55;;;;;;;;;;;;;;;8.72;68.41;94821.59;5038705;23;19989;-78
2023/04/09 03:01:56;;;;;;;;;;;;;;;8.70;68.04;94823.53;5065082;23;20621;-76
2023/04/09 03:03:58;;;;;;;;;;;;;;;8.64;68.69;94829.31;5064789;23;19928;-77
2023/04/09 03:06:00;;;;;;;;;;;;;;;8.60;68.38;94827.00;5065983;23;20404;-77
2023/04/09 03:08:02;;;;;;;;;;;;;;;8.59;68.70;94827.97;5064365;23;20446;-78
2023/04/09 03:10:03;;;;;;;;;;;;;;;8.54;68.27;94827.59;5065478;23;19924;-77
2023/04/09 03:12:05;;;;;;;;;;;;;;;8.49;68.47;94828.97;5039802;23;19970;-77
2023/04/09 03:14:06;;;;;;;;;;;;;;;8.50;68.53;94822.78;5064660;23;19928;-80
2023/04/09 03:16:09;;;;;;;;;;;;;;;8.46;68.45;94824.88;5064440;23;19921;-76
2023/04/09 03:18:10;;;;;;;;;;;;;;;8.45;68.56;94825.00;5064410;23;19921;-76
2023/04/09 03:20:12;;;;;;;;;;;;;;;8.45;68.58;94830.22;5064822;23;20328;-76
2023/04/09 03:22:13;;;;;;;;;;;;;;;8.45;68.48;94828.41;5039612;23;20018;-77
2023/04/09 03:24:15;;;;;;;;;;;;;;;8.43;68.78;94827.75;5064805;23;19921;-76
2023/04/09 03:26:16;;;;;;;;;;;;;;;8.42;68.44;94831.31;5065657;23;19931;-78
2023/04/09 03:28:18;;;;;;;;;;;;;;;8.39;69.03;94827.19;5063916;23;19928;-78
2023/04/09 03:30:19;;;;;;;;;;;;;;;8.40;68.72;94823.63;5063601;23;19921;-78
2023/04/09 03:32:21;;;;;;;;;;;;;;;8.43;68.70;94822.53;5063504;23;20308;-78
2023/04/09 03:34:23;;;;;;;;;;;;;;;8.37;68.81;94821.28;5064523;23;19921;-77
2023/04/09 03:36:26;;;;;;;;;;;;;;;8.37;69.05;94818.69;5062696;23;19925;-72
2023/04/09 03:38:28;;;;;;;;;;;;;;;8.34;68.92;94820.75;5063542;23;20046;-77
2023/04/09 03:40:29;;;;;;;;;;;;;;;8.39;69.03;94819.34;5063798;23;20026;-79
2023/04/09 03:42:31;;;;;;;;;;;;;;;8.37;69.21;94818.69;5063659;23;19951;-78
2023/04/09 03:44:33;;;;;;;;;;;;;;;8.36;69.36;94822.25;5063868;23;19940;-77
2023/04/09 03:46:34;;;;;;;;;;;;;;;8.40;68.89;94828.00;5065407;23;19964;-75
2023/04/09 03:48:36;;;;;;;;;;;;;;;8.43;68.46;94827.75;5038429;23;19932;-74
2023/04/09 03:50:38;;;;;;;;;;;;;;;8.43;69.19;94827.75;5064867;23;20317;-72
2023/04/09 03:52:40;;;;;;;;;;;;;;;8.34;69.09;94832.00;5064908;23;19921;-71
2023/04/09 03:54:42;;;;;;;;;;;;;;;8.32;69.49;94826.09;5064847;23;19931;-71
2023/04/09 03:56:44;;;;;;;;;;;;;;;8.31;69.19;94839.31;5039192;23;19921;-72
2023/04/09 03:58:47;;;;;;;;;;;;;;;8.33;68.82;94837.38;5015625;23;20369;-71
2023/04/09 04:00:48;;;;;;;;;;;;;;;8.27;69.18;94843.97;5063928;23;20291;-78
2023/04/09 04:02:50;;;;;;;;;;;;;;;8.25;69.06;94845.09;5065575;23;19921;-77
2023/04/09 04:04:52;;;;;;;;;;;;;;;8.23;69.22;94847.00;5017520;23;19953;-78
2023/04/09 04:06:54;;;;;;;;;;;;;;;8.17;69.34;94841.41;5066771;23;19928;-78
2023/04/09 04:08:55;;;;;;;;;;;;;;;8.19;69.14;94841.25;5066957;23;19921;-77
2023/04/09 04:11:02;;;;;;;;;;;;;;;8.16;68.97;94841.53;5067326;23;19932;-79
2023/04/09 04:13:05;;;;;;;;;;;;;;;8.18;69.04;94843.03;5066893;23;19973;-78
2023/04/09 04:15:07;;;;;;;;;;;;;;;8.18;69.32;94840.44;5066396;23;20332;-77
2023/04/09 04:17:11;;;;;;;;;;;;;;;8.23;69.63;94839.19;5039789;23;19929;-77
2023/04/09 04:19:13;;;;;;;;;;;;;;;8.25;69.12;94840.69;5067281;23;19969;-78
2023/04/09 04:21:15;;;;;;;;;;;;;;;8.27;68.91;94837.94;5068065;23;19921;-78
2023/04/09 04:23:16;;;;;;;;;;;;;;;8.25;68.47;94840.69;5066930;23;20169;-82
2023/04/09 04:25:18;;;;;;;;;;;;;;;8.27;68.58;94843.97;5067532;23;19921;-79
2023/04/09 04:27:19;;;;;;;;;;;;;;;8.24;68.45;94844.28;5067611;23;19921;-78
2023/04/09 04:29:21;;;;;;;;;;;;;;;8.30;68.83;94842.88;5017133;23;19932;-77
2023/04/09 04:31:22;;;;;;;;;;;;;;;8.27;68.80;94843.16;5066542;23;20348;-79
2023/04/09 04:33:24;;;;;;;;;;;;;;;8.31;69.04;94844.53;5066148;23;19925;-80
2023/04/09 04:35:25;;;;;;;;;;;;;;;8.39;68.45;94848.06;5067551;23;19921;-78
2023/04/09 04:37:27;;;;;;;;;;;;;;;8.44;68.45;94842.44;5067608;23;19976;-78
2023/04/09 04:39:29;;;;;;;;;;;;;;;8.46;68.16;94839.72;5067266;23;19921;-79
2023/04/09 04:41:31;;;;;;;;;;;;;;;8.51;68.48;94842.69;5041856;23;20050;-78
2023/04/09 04:43:32;;;;;;;;;;;;;;;8.51;67.74;94838.28;5066621;23;20336;-78
2023/04/09 04:45:34;;;;;;;;;;;;;;;8.54;67.74;94837.19;5040806;23;19928;-80
2023/04/09 04:47:35;;;;;;;;;;;;;;;8.54;68.23;94840.63;5066401;23;19921;-83
2023/04/09 04:49:37;;;;;;;;;;;;;;;8.51;67.88;94843.53;5066442;23;19925;-79
2023/04/09 04:51:39;;;;;;;;;;;;;;;8.52;68.08;94846.97;5067302;23;19987;-81
2023/04/09 04:53:40;;;;;;;;;;;;;;;8.61;67.83;94846.94;5067749;23;19921;-79
2023/04/09 04:55:42;;;;;;;;;;;;;;;8.72;67.16;94843.31;5066449;23;19925;-80
2023/04/09 04:57:43;;;;;;;;;;;;;;;8.78;67.33;94844.53;5066904;23;19921;-78
2023/04/09 04:59:45;;;;;;;;;;;;;;;8.70;67.10;94849.66;5066380;23;19921;-78
2023/04/09 05:01:46;;;;;;;;;;;;;;;8.73;67.52;94842.34;5067870;23;19928;-79
2023/04/09 05:03:48;;;;;;;;;;;;;;;8.65;67.51;94849.25;5069654;23;19981;-77
2023/04/09 05:05:49;;;;;;;;;;;;;;;8.70;67.35;94847.84;5068739;23;19921;-78
2023/04/09 05:07:51;;;;;;;;;;;;;;;8.71;67.45;94840.84;5068183;23;19927;-79
2023/04/09 05:09:52;;;;;;;;;;;;;;;8.75;67.63;94844.81;5068020;23;19921;-78
2023/04/09 05:11:55;;;;;;;;;;;;;;;8.82;67.57;94845.88;5068776;23;19921;-81
2023/04/09 05:13:57;;;;;;;;;;;;;;;8.76;66.69;94846.47;5043672;23;20340;-78
2023/04/09 05:15:58;;;;;;;;;;;;;;;8.80;66.86;94847.81;5067228;23;20344;-78
2023/04/09 05:18:00;;;;;;;;;;;;;;;8.89;66.73;94844.34;5067773;23;19921;-77
2023/04/09 05:20:02;;;;;;;;;;;;;;;8.83;66.85;94850.13;5068457;23;19977;-79
2023/04/09 05:22:03;;;;;;;;;;;;;;;8.74;66.45;94856.22;5067728;23;20269;-81
2023/04/09 05:24:05;;;;;;;;;;;;;;;8.68;66.93;94851.59;5069091;23;20573;-79
2023/04/09 05:26:07;;;;;;;;;;;;;;;8.70;67.19;94849.66;5067299;23;19932;-81
2023/04/09 05:28:10;;;;;;;;;;;;;;;8.72;67.16;94850.34;5068357;23;19921;-81
2023/04/09 05:30:12;;;;;;;;;;;;;;;8.71;67.41;94843.44;5066985;23;20364;-79
2023/04/09 05:32:14;;;;;;;;;;;;;;;8.65;67.12;94844.00;5070800;23;19925;-80
2023/04/09 05:34:25;;;;;;;;;;;;;;;8.64;67.72;94850.22;5024823;23;19928;-77
2023/04/09 05:36:27;;;;;;;;;;;;;;;8.70;67.02;94844.44;5068383;23;19977;-78
2023/04/09 05:38:29;;;;;;;;;;;;;;;8.72;67.24;94845.91;5067942;23;20557;-80
2023/04/09 05:40:30;;;;;;;;;;;;;;;8.80;67.52;94845.22;5042929;23;19958;-79
2023/04/09 05:42:32;;;;;;;;;;;;;;;8.84;67.98;94845.72;5042910;23;19922;-77
2023/04/09 05:44:33;;;;;;;;;;;;;;;8.94;67.51;94846.50;5067567;23;19924;-76
2023/04/09 05:46:35;;;;;;;;;;;;;;;8.97;67.41;94854.03;5068136;23;19973;-78
2023/04/09 05:48:36;;;;;;;;;;;;;;;8.94;67.38;94855.16;5067836;23;19921;-80
2023/04/09 05:50:38;;;;;;;;;;;;;;;8.82;66.99;94857.16;5043023;23;20420;-79
2023/04/09 05:52:54;;;;;;;;;;;;;;;8.73;68.26;94850.19;5069201;23;19972;-77
2023/04/09 05:54:56;;;;;;;;;;;;;;;8.75;68.28;94850.84;5043495;23;20029;-82
2023/04/09 05:56:57;;;;;;;;;;;;;;;8.70;67.72;94849.66;5071437;23;19925;-81
2023/04/09 05:58:59;;;;;;;;;;;;;;;8.68;68.00;94860.22;5069650;23;19925;-79
2023/04/09 06:01:00;;;;;;;;;;;;;;;8.48;68.31;94861.28;5020498;23;19922;-80
2023/04/09 06:03:02;;;;;;;;;;;;;;;8.65;68.40;94852.69;5069701;23;19924;-81
2023/04/09 06:05:04;;;;;;;;;;;;;;;8.84;67.90;94846.56;5043426;23;19926;-78
2023/04/09 06:07:05;;;;;;;;;;;;;;;8.97;67.39;94851.44;5068944;23;19921;-79
2023/04/09 06:09:07;;;;;;;;;;;;;;;9.10;67.08;94851.09;5068259;23;20016;-78
2023/04/09 06:11:09;;;;;;;;;;;;;;;9.16;66.10;94853.13;5018334;23;19921;-75
2023/04/09 06:13:10;;;;;;;;;;;;;;;9.19;66.11;94855.47;5039957;23;19949;-72
2023/04/09 06:15:12;;;;;;;;;;;;;;;9.25;65.93;94849.66;5064971;23;19984;-73
2023/04/09 06:17:13;;;;;;;;;;;;;;;9.37;65.50;94852.88;5064574;23;20250;-73
2023/04/09 06:19:15;;;;;;;;;;;;;;;9.37;64.94;94851.06;5065309;23;20241;-74
2023/04/09 06:21:17;;;;;;;;;;;;;;;9.06;64.82;94858.41;5065576;23;19925;-73
2023/04/09 06:23:18;;;;;;;;;;;;;;;9.10;65.55;94856.31;5065536;23;20310;-73
2023/04/09 06:25:20;;;;;;;;;;;;;;;9.26;65.18;94853.91;5065269;23;19925;-76
2023/04/09 06:27:22;;;;;;;;;;;;;;;9.33;64.55;94857.56;5065164;23;20267;-73
2023/04/09 06:29:23;;;;;;;;;;;;;;;9.38;63.67;94857.97;5063924;23;19921;-75
2023/04/09 06:31:25;;;;;;;;;;;;;;;9.38;63.37;94857.97;5039960;23;19949;-74
2023/04/09 06:33:26;;;;;;;;;;;;;;;9.47;62.70;94848.41;5064572;23;19921;-75
2023/04/09 06:35:28;;;;;;;;;;;;;;;9.55;61.96;94848.47;5066370;23;19921;-73
2023/04/09 06:37:30;;;;;;;;;;;;;;;9.75;61.95;94851.75;5066619;23;19932;-75
2023/04/09 06:39:32;;;;;;;;;;;;;;;9.95;62.26;94851.59;5039110;23;20333;-76
2023/04/09 06:41:33;;;;;;;;;;;;;;;10.15;61.75;94870.56;5039961;23;19969;-74
2023/04/09 06:43:36;;;;;;;;;;;;;;;10.14;60.91;94856.66;5066424;23;19928;-75
2023/04/09 06:45:37;;;;;;;;;;;;;;;10.25;60.62;94864.25;5064905;23;19929;-75
2023/04/09 06:47:41;;;;;;;;;;;;;;;10.38;60.04;94857.84;5015758;23;19929;-73
2023/04/09 06:49:43;;;;;;;;;;;;;;;10.39;59.79;94862.06;5065594;23;19925;-73
2023/04/09 06:51:45;;;;;;;;;;;;;;;10.30;60.10;94865.63;5064829;23;19928;-74
2023/04/09 06:53:47;;;;;;;;;;;;;;;10.42;60.06;94861.78;5039493;23;19928;-74
2023/04/09 06:55:48;;;;;;;;;;;;;;;10.58;60.49;94863.66;5065226;23;20023;-76
2023/04/09 06:57:50;;;;;;;;;;;;;;;10.70;59.19;94864.25;5065198;23;19948;-74
2023/04/09 06:59:52;;;;;;;;;;;;;;;10.51;58.65;94865.28;5066296;23;20481;-76
2023/04/09 07:01:53;;;;;;;;;;;;;;;10.21;59.35;94865.53;5039826;23;19997;-74
2023/04/09 07:03:55;;;;;;;;;;;;;;;10.17;59.35;94866.00;5065731;23;19951;-73
2023/04/09 07:05:57;;;;;;;;;;;;;;;9.89;59.43;94870.50;5040289;23;20337;-74
2023/04/09 07:07:59;;;;;;;;;;;;;;;9.92;59.56;94865.81;5065707;23;19925;-76
2023/04/09 07:10:00;;;;;;;;;;;;;;;10.03;60.21;94864.75;5065145;23;19925;-74
2023/04/09 07:12:02;;;;;;;;;;;;;;;10.22;58.99;94869.81;5039656;23;19925;-73
2023/04/09 07:14:04;;;;;;;;;;;;;;;10.35;58.60;94866.81;5016114;23;19981;-76
2023/04/09 07:16:05;;;;;;;;;;;;;;;10.34;59.30;94867.78;5064267;23;19921;-77
2023/04/09 07:18:07;;;;;;;;;;;;;;;10.53;58.67;94868.56;5064618;23;20225;-74
2023/04/09 07:20:09;;;;;;;;;;;;;;;10.60;57.61;94866.97;5068262;23;19925;-79
2023/04/09 07:22:11;;;;;;;;;;;;;;;10.70;57.77;94866.88;5067523;23;20000;-80
2023/04/09 07:24:12;;;;;;;;;;;;;;;10.81;57.91;94870.03;5066690;23;19921;-80
2023/04/09 07:26:14;;;;;;;;;;;;;;;10.91;57.35;94869.94;5067739;23;19948;-81
2023/04/09 07:28:15;;;;;;;;;;;;;;;10.76;57.75;94866.25;5067355;23;19928;-78
2023/04/09 07:30:17;;;;;;;;;;;;;;;10.71;55.59;94868.50;5041408;23;19933;-81
2023/04/09 07:32:19;;;;;;;;;;;;;;;10.68;56.36;94867.00;5067104;23;19921;-81
2023/04/09 07:34:20;;;;;;;;;;;;;;;10.74;56.51;94865.59;5042866;23;19922;-79
2023/04/09 07:36:22;;;;;;;;;;;;;;;10.83;56.58;94862.00;5067574;23;19921;-79
2023/04/09 07:38:23;;;;;;;;;;;;;;;10.99;55.99;94864.72;5067218;23;19951;-80
2023/04/09 07:40:25;;;;;;;;;;;;;;;10.94;56.60;94871.41;5040507;23;19949;-79
2023/04/09 07:42:27;;;;;;;;;;;;;;;10.81;56.01;94866.59;5042057;23;19921;-79
2023/04/09 07:44:29;;;;;;;;;;;;;;;10.56;55.63;94865.63;5066839;23;19921;-82
2023/04/09 07:46:30;;;;;;;;;;;;;;;10.56;57.02;94866.47;5041615;23;19925;-78
2023/04/09 07:48:32;;;;;;;;;;;;;;;10.72;56.36;94868.34;5041675;23;20453;-81
2023/04/09 07:50:33;;;;;;;;;;;;;;;10.84;55.67;94863.66;5068256;23;19941;-80
2023/04/09 07:52:35;;;;;;;;;;;;;;;10.97;56.44;94866.69;5018135;23;19968;-78
2023/04/09 07:54:36;;;;;;;;;;;;;;;11.27;55.09;94869.72;5067951;23;20379;-80
2023/04/09 07:56:38;;;;;;;;;;;;;;;11.40;54.36;94880.59;5067872;23;19953;-82
2023/04/09 07:58:39;;;;;;;;;;;;;;;11.56;54.44;94871.94;5019279;23;20099;-81
2023/04/09 08:00:41;;;;;;;;;;;;;;;11.42;54.66;94868.16;5067585;23;19988;-81
2023/04/09 08:02:43;;;;;;;;;;;;;;;11.71;54.57;94872.13;5043153;23;19921;-81
2023/04/09 08:04:45;;;;;;;;;;;;;;;11.91;54.53;94872.69;5068565;23;20416;-79
2023/04/09 08:06:49;;;;;;;;;;;;;;;12.22;53.87;94879.94;5041247;23;20004;-79
2023/04/09 08:08:52;;;;;;;;;;;;;;;12.31;53.41;94881.56;5042647;23;19921;-78
2023/04/09 08:10:54;;;;;;;;;;;;;;;12.23;52.51;94882.38;5041982;23;20364;-81
2023/04/09 08:12:55;;;;;;;;;;;;;;;11.73;52.83;94885.91;5042882;23;19926;-81
2023/04/09 08:14:57;;;;;;;;;;;;;;;11.56;53.91;94886.88;5016906;23;19922;-80
2023/04/09 08:16:59;;;;;;;;;;;;;;;11.70;53.77;94888.84;5018327;23;19925;-77
2023/04/09 08:19:00;;;;;;;;;;;;;;;11.78;53.51;94888.06;5042024;23;19949;-81
2023/04/09 08:21:05;;;;;;;;;;;;;;;11.67;53.85;94881.31;5067704;23;19949;-79
2023/04/09 08:23:07;;;;;;;;;;;;;;;12.01;53.21;94883.03;5068053;23;19966;-79
2023/04/09 08:25:08;;;;;;;;;;;;;;;12.17;52.95;94877.75;5066833;23;19931;-81
2023/04/09 08:27:10;;;;;;;;;;;;;;;12.23;52.74;94871.84;5067082;23;19969;-79
2023/04/09 08:29:12;;;;;;;;;;;;;;;12.08;52.85;94874.31;5041585;23;20008;-80
2023/04/09 08:31:14;;;;;;;;;;;;;;;11.97;52.32;94879.91;5067283;23;19927;-82
2023/04/09 08:33:16;;;;;;;;;;;;;;;11.96;52.88;94886.16;5066867;23;19921;-79
2023/04/09 08:35:17;;;;;;;;;;;;;;;11.90;52.92;94872.84;5068076;23;19921;-77
2023/04/09 08:37:19;;;;;;;;;;;;;;;11.95;52.92;94881.06;5069910;23;19925;-79
2023/04/09 08:39:21;;;;;;;;;;;;;;;11.82;53.11;94887.56;5069969;23;19920;-78
2023/04/09 08:41:28;;;;;;;;;;;;;;;11.72;53.35;94894.75;5070155;23;20032;-80
2023/04/09 08:43:29;;;;;;;;;;;;;;;11.60;53.67;94875.88;5043986;23;19948;-81
2023/04/09 08:45:52;;;;;;;;;;;;;;;11.58;54.06;94883.09;5069931;23;19921;-82
2023/04/09 08:47:54;;;;;;;;;;;;;;;11.12;54.75;94876.56;5042995;23;20056;-79
2023/04/09 08:49:55;;;;;;;;;;;;;;;11.24;55.40;94875.28;5068162;23;19963;-79
2023/04/09 08:51:57;;;;;;;;;;;;;;;11.39;55.08;94875.50;5071126;23;20437;-82
2023/04/09 08:53:59;;;;;;;;;;;;;;;11.13;55.75;94873.78;5042615;23;20257;-79
2023/04/09 08:56:21;;;;;;;;;;;;;;;11.40;55.35;94880.59;5048103;23;19933;-80
2023/04/09 08:58:22;;;;;;;;;;;;;;;11.08;56.08;94878.69;5044806;23;19922;-81
2023/04/09 09:00:24;;;;;;;;;;;;;;;11.19;56.44;94881.00;5070532;23;20336;-81
2023/04/09 09:02:25;;;;;;;;;;;;;;;11.04;55.70;94877.34;5069776;23;19964;-81
2023/04/09 09:04:29;;;;;;;;;;;;;;;11.11;55.49;94867.06;5070131;23;19952;-81
2023/04/09 09:06:31;;;;;;;;;;;;;;;11.12;55.60;94860.81;5043459;23;19921;-80
2023/04/09 09:08:34;;;;;;;;;;;;;;;10.97;56.01;94869.31;5043859;23;20253;-80
2023/04/09 09:10:36;;;;;;;;;;;;;;;10.92;55.69;94873.34;5044296;23;19921;-80
2023/04/09 09:12:38;;;;;;;;;;;;;;;10.64;56.40;94866.50;5070222;23;19973;-81
2023/04/09 09:14:40;;;;;;;;;;;;;;;10.71;56.92;94876.34;5044440;23;20012;-78
2023/04/09 09:16:42;;;;;;;;;;;;;;;10.82;56.69;94860.38;5019836;23;19928;-80
2023/04/09 09:18:44;;;;;;;;;;;;;;;10.84;56.06;94864.50;5069209;23;19921;-80
2023/04/09 09:20:45;;;;;;;;;;;;;;;10.94;56.27;94855.69;5069870;23;20000;-78
2023/04/09 09:22:48;;;;;;;;;;;;;;;10.54;57.25;94857.94;5069261;23;19921;-79
2023/04/09 09:24:56;;;;;;;;;;;;;;;10.60;56.75;94859.94;5045497;23;19921;-77
2023/04/09 09:26:57;;;;;;;;;;;;;;;11.04;56.74;94865.06;5067854;23;20000;-80
2023/04/09 09:28:59;;;;;;;;;;;;;;;11.35;54.97;94866.31;5043379;23;20385;-80
2023/04/09 09:31:06;;;;;;;;;;;;;;;11.38;54.10;94856.34;5042824;23;19921;-78
2023/04/09 09:33:08;;;;;;;;;;;;;;;11.45;54.49;94848.63;5067476;23;19921;-80
2023/04/09 09:35:13;;;;;;;;;;;;;;;11.62;53.90;94852.13;5040882;23;20387;-74
2023/04/09 09:37:27;;;;;;;;;;;;;;;12.00;53.92;94848.09;5066553;23;20301;-75
2023/04/09 09:39:42;;;;;;;;;;;;;;;12.33;52.46;94849.88;5040667;23;19921;-75
2023/04/09 09:41:44;;;;;;;;;;;;;;;12.33;51.75;94837.56;5039979;23;19969;-73
2023/04/09 09:43:45;;;;;;;;;;;;;;;11.87;52.74;94845.91;5040499;23;19924;-73
2023/04/09 09:45:47;;;;;;;;;;;;;;;11.98;52.99;94851.84;5065079;23;19921;-74
2023/04/09 09:47:49;;;;;;;;;;;;;;;12.25;51.82;94848.06;5064560;23;19924;-74
2023/04/09 09:49:50;;;;;;;;;;;;;;;12.43;51.43;94835.56;5040708;23;19953;-74
2023/04/09 09:51:52;;;;;;;;;;;;;;;12.62;51.08;94837.00;5040724;23;20396;-75
2023/04/09 09:53:55;;;;;;;;;;;;;;;12.76;50.81;94834.69;5066848;23;19921;-74
2023/04/09 09:55:56;;;;;;;;;;;;;;;12.81;50.62;94840.25;5039607;23;20000;-74
2023/04/09 09:58:02;;;;;;;;;;;;;;;12.91;50.38;94838.25;5040359;23;20309;-76
2023/04/09 10:00:04;;;;;;;;;;;;;;;13.10;48.54;94837.84;5039816;23;19921;-73
2023/04/09 10:02:08;;;;;;;;;;;;;;;13.00;48.10;94836.41;5064942;23;19921;-75
2023/04/09 10:04:12;;;;;;;;;;;;;;;12.74;48.40;94831.41;5016570;23;19922;-74
2023/04/09 10:06:14;;;;;;;;;;;;;;;12.62;49.20;94831.75;5040539;23;20321;-72
2023/04/09 10:08:16;;;;;;;;;;;;;;;12.90;48.89;94828.69;5040702;23;19928;-74
2023/04/09 10:10:17;;;;;;;;;;;;;;;12.93;48.15;94828.38;5066252;23;20328;-75
2023/04/09 10:12:21;;;;;;;;;;;;;;;12.74;48.31;94829.59;5066022;23;19929;-76
2023/04/09 10:14:23;;;;;;;;;;;;;;;12.84;48.49;94816.22;5039190;23;20020;-76
2023/04/09 10:16:25;;;;;;;;;;;;;;;13.01;48.33;94833.56;5064834;23;20344;-74
2023/04/09 10:18:28;;;;;;;;;;;;;;;12.98;47.47;94820.78;5039044;23;19953;-79
2023/04/09 10:20:34;;;;;;;;;;;;;;;12.94;48.08;94827.38;5042126;23;20423;-74
2023/04/09 10:22:36;;;;;;;;;;;;;;;12.78;48.12;94823.00;5066255;23;20383;-75
2023/04/09 10:24:38;;;;;;;;;;;;;;;12.93;48.10;94822.28;5064808;23;19928;-72
2023/04/09 10:26:39;;;;;;;;;;;;;;;12.47;48.63;94820.28;5039614;23;19949;-74
2023/04/09 10:28:41;;;;;;;;;;;;;;;12.63;48.75;94820.25;5065944;23;20359;-76
2023/04/09 10:30:43;;;;;;;;;;;;;;;12.60;48.74;94833.72;5039028;23;20241;-73
2023/04/09 10:32:45;;;;;;;;;;;;;;;12.66;48.80;94821.72;5064043;23;19991;-75
2023/04/09 10:34:47;;;;;;;;;;;;;;;12.79;48.24;94823.81;5039971;23;19957;-74
2023/04/09 10:36:51;;;;;;;;;;;;;;;12.94;47.24;94816.03;5066038;23;19945;-77
2023/04/09 10:38:53;;;;;;;;;;;;;;;12.80;47.21;94815.75;5039818;23;19971;-73
2023/04/09 10:40:55;;;;;;;;;;;;;;;12.94;47.56;94808.97;5040739;23;20011;-75
2023/04/09 10:42:56;;;;;;;;;;;;;;;13.27;47.40;94816.69;5040368;23;19927;-74